Time;durP1;ratioP1;P1;durP2;ratioP2;P2;SDS_P1;SDS_P2;PMS_P1;PMS_P2;Temp;Humidity;BMP_temperature;BMP_pressure;BME280_temperature;BME280_humidity;BME280_pressure;Samples;Min_cycle;Max_cycle;Signal;HPM_P1;HPM_P2
2022/11/16 00:01:07;;;;;;;;;;;2.80;99.90;;;;;;5036930;28;19916;-71
2022/11/16 00:03:33;;;;;;;;;;;2.80;99.90;;;;;;5036651;28;19916;-71
2022/11/16 00:06:00;;;;;;;;;;;2.80;99.90;;;;;;5036542;28;20312;-70
2022/11/16 00:08:28;;;;;;;;;;;2.80;99.90;;;;;;5036702;28;19913;-70
2022/11/16 00:10:53;;;;;;;;;;;2.90;99.90;;;;;;5037010;28;19936;-70
2022/11/16 00:13:19;;;;;;;;;;;2.90;99.90;;;;;;5036445;28;19913;-70
2022/11/16 00:15:54;;;;;;;;;;;2.90;99.90;;;;;;5036405;28;20281;-70
2022/11/16 00:18:20;;;;;;;;;;;3.00;99.90;;;;;;5036203;28;20000;-70
2022/11/16 00:20:45;;;;;;;;;;;3.00;99.90;;;;;;5036318;28;20012;-70
2022/11/16 00:23:11;;;;;;;;;;;2.90;99.90;;;;;;5036221;28;19920;-70
2022/11/16 00:25:36;;;;;;;;;;;2.90;99.90;;;;;;5036296;28;19913;-70
2022/11/16 00:28:02;;;;;;;;;;;2.90;99.90;;;;;;5036109;28;20088;-70
2022/11/16 00:30:28;;;;;;;;;;;2.80;99.90;;;;;;5036690;28;19992;-70
2022/11/16 00:32:53;;;;;;;;;;;2.80;99.90;;;;;;5018393;28;19913;-71
2022/11/16 00:35:19;;;;;;;;;;;2.80;99.90;;;;;;5036050;28;19920;-71
2022/11/16 00:37:44;;;;;;;;;;;2.80;99.90;;;;;;5035934;28;19913;-70
2022/11/16 00:40:10;;;;;;;;;;;2.80;99.90;;;;;;5035829;28;19972;-70
2022/11/16 00:42:36;;;;;;;;;;;2.80;99.90;;;;;;5018197;28;20289;-71
2022/11/16 00:45:01;;;;;;;;;;;2.80;99.90;;;;;;5035852;28;19914;-71
2022/11/16 00:47:27;;;;;;;;;;;2.90;99.90;;;;;;5018028;28;19967;-71
2022/11/16 00:49:52;;;;;;;;;;;2.90;99.90;;;;;;5035808;28;19913;-71
2022/11/16 00:52:18;;;;;;;;;;;3.00;99.90;;;;;;5035790;28;19917;-71
2022/11/16 00:54:43;;;;;;;;;;;3.00;99.90;;;;;;5035909;28;19928;-71
2022/11/16 00:57:09;;;;;;;;;;;3.00;99.90;;;;;;5036081;28;19941;-70
2022/11/16 00:59:34;;;;;;;;;;;3.00;99.90;;;;;;5035716;28;19921;-70
2022/11/16 01:02:00;;;;;;;;;;;3.00;99.90;;;;;;5035527;28;19920;-71
2022/11/16 01:04:25;;;;;;;;;;;3.00;99.90;;;;;;5035711;28;19924;-70
2022/11/16 01:06:51;;;;;;;;;;;3.00;99.90;;;;;;5035638;28;19917;-71
2022/11/16 01:09:17;;;;;;;;;;;3.00;99.90;;;;;;5035358;28;20275;-71
2022/11/16 01:14:26;;;;;;;;;;;3.10;99.90;;;;;;5035629;28;19924;-70
2022/11/16 01:16:52;;;;;;;;;;;3.00;99.90;;;;;;5035162;28;19913;-70
2022/11/16 01:19:17;;;;;;;;;;;3.10;99.90;;;;;;5017313;28;19927;-70
2022/11/16 01:21:43;;;;;;;;;;;3.00;99.90;;;;;;5035462;28;19909;-70
2022/11/16 01:24:08;;;;;;;;;;;3.00;99.90;;;;;;5035114;28;19914;-70
2022/11/16 01:26:34;;;;;;;;;;;2.90;99.90;;;;;;5035307;28;19920;-71
2022/11/16 01:28:59;;;;;;;;;;;2.90;99.90;;;;;;5017714;28;19909;-70
2022/11/16 01:31:25;;;;;;;;;;;2.80;99.90;;;;;;5034933;28;19913;-70
2022/11/16 01:33:50;;;;;;;;;;;2.70;99.90;;;;;;5035183;28;20008;-71
2022/11/16 01:36:16;;;;;;;;;;;2.60;99.90;;;;;;5017152;28;20376;-71
2022/11/16 01:38:43;;;;;;;;;;;2.60;99.90;;;;;;5034178;28;20280;-70
2022/11/16 01:41:11;;;;;;;;;;;2.60;99.90;;;;;;5034769;28;19910;-71
2022/11/16 01:43:52;;;;;;;;;;;2.60;99.90;;;;;;5034892;28;20011;-71
2022/11/16 01:46:18;;;;;;;;;;;2.60;99.90;;;;;;5034665;28;19913;-71
2022/11/16 01:48:44;;;;;;;;;;;2.70;99.90;;;;;;5034587;28;19909;-70
2022/11/16 01:51:10;;;;;;;;;;;2.80;99.90;;;;;;5034538;28;19913;-70
2022/11/16 01:53:35;;;;;;;;;;;2.80;99.90;;;;;;5035133;28;19927;-70
2022/11/16 01:56:01;;;;;;;;;;;2.70;99.90;;;;;;5034511;28;19916;-70
2022/11/16 01:58:26;;;;;;;;;;;2.70;99.90;;;;;;5034569;28;19913;-69
2022/11/16 02:00:52;;;;;;;;;;;2.70;99.90;;;;;;5034982;28;20265;-71
2022/11/16 02:03:18;;;;;;;;;;;2.70;99.90;;;;;;5034959;28;20299;-70
2022/11/16 02:05:47;;;;;;;;;;;2.70;99.90;;;;;;5034355;28;19928;-70
2022/11/16 02:11:20;;;;;;;;;;;2.80;99.90;;;;;;5034510;28;19978;-71
2022/11/16 02:14:04;;;;;;;;;;;2.90;99.90;;;;;;5034999;28;20273;-71
2022/11/16 02:16:47;;;;;;;;;;;2.90;99.90;;;;;;5034592;28;19909;-70
2022/11/16 02:19:15;;;;;;;;;;;2.90;99.90;;;;;;5034309;28;20051;-71
2022/11/16 02:22:03;;;;;;;;;;;3.00;99.90;;;;;;5034054;28;19910;-71
2022/11/16 02:24:42;;;;;;;;;;;3.00;99.90;;;;;;5034308;28;19989;-71
2022/11/16 02:27:18;;;;;;;;;;;3.10;99.90;;;;;;5033880;28;19917;-70
2022/11/16 02:29:46;;;;;;;;;;;3.10;99.90;;;;;;5033948;28;19909;-71
2022/11/16 02:32:17;;;;;;;;;;;3.10;99.90;;;;;;5033876;28;19913;-70
2022/11/16 02:34:45;;;;;;;;;;;3.10;99.90;;;;;;5033850;28;20369;-71
2022/11/16 02:37:12;;;;;;;;;;;3.10;99.90;;;;;;5034028;28;19909;-71
2022/11/16 02:39:38;;;;;;;;;;;3.00;99.90;;;;;;5034015;28;19917;-71
2022/11/16 02:42:07;;;;;;;;;;;3.00;99.90;;;;;;5033731;28;19909;-69
2022/11/16 02:44:34;;;;;;;;;;;3.00;99.90;;;;;;5016043;28;20004;-70
2022/11/16 02:47:06;;;;;;;;;;;3.00;99.90;;;;;;5033556;28;19916;-70
2022/11/16 02:49:38;;;;;;;;;;;3.10;99.90;;;;;;5033329;28;19952;-70
2022/11/16 02:52:03;;;;;;;;;;;3.10;99.90;;;;;;5033748;28;19909;-71
2022/11/16 02:54:29;;;;;;;;;;;3.10;99.90;;;;;;5034133;28;20012;-71
2022/11/16 02:56:56;;;;;;;;;;;3.10;99.90;;;;;;5033541;28;19992;-70
2022/11/16 02:59:25;;;;;;;;;;;3.10;99.90;;;;;;5033495;28;20431;-70
2022/11/16 03:01:54;;;;;;;;;;;3.20;99.90;;;;;;5033473;28;20429;-69
2022/11/16 03:04:29;;;;;;;;;;;3.20;99.90;;;;;;5033463;28;19909;-70
2022/11/16 03:06:55;;;;;;;;;;;3.20;99.90;;;;;;5033663;28;19909;-71
2022/11/16 03:09:23;;;;;;;;;;;3.20;99.90;;;;;;5033466;28;19909;-70
2022/11/16 03:12:01;;;;;;;;;;;3.20;99.90;;;;;;5033357;28;19915;-71
2022/11/16 03:14:34;;;;;;;;;;;3.20;99.90;;;;;;5033689;28;19913;-70
2022/11/16 03:17:03;;;;;;;;;;;3.20;99.90;;;;;;5034006;28;19916;-70
2022/11/16 03:19:35;;;;;;;;;;;3.30;99.90;;;;;;5033275;28;19913;-70
2022/11/16 03:22:06;;;;;;;;;;;3.30;99.90;;;;;;5033624;28;19910;-71
2022/11/16 03:24:32;;;;;;;;;;;3.30;99.90;;;;;;5033328;28;20431;-71
2022/11/16 03:27:04;;;;;;;;;;;3.30;99.90;;;;;;5033220;28;19913;-71
2022/11/16 03:29:31;;;;;;;;;;;3.30;99.90;;;;;;5033440;28;19909;-71
2022/11/16 03:32:01;;;;;;;;;;;3.30;99.90;;;;;;5033215;28;19909;-71
2022/11/16 03:34:30;;;;;;;;;;;3.30;99.90;;;;;;5033179;28;19955;-71
2022/11/16 03:36:57;;;;;;;;;;;3.30;99.90;;;;;;5033398;28;20341;-70
2022/11/16 03:39:26;;;;;;;;;;;3.30;99.90;;;;;;5033070;28;20328;-71
2022/11/16 03:41:53;;;;;;;;;;;3.30;99.90;;;;;;5033412;28;19909;-71
2022/11/16 03:44:19;;;;;;;;;;;3.30;99.90;;;;;;5033098;28;20411;-71
2022/11/16 03:46:45;;;;;;;;;;;3.30;99.90;;;;;;5015284;28;19999;-70
2022/11/16 03:49:11;;;;;;;;;;;3.30;99.90;;;;;;5033320;28;19909;-71
2022/11/16 03:51:37;;;;;;;;;;;3.30;99.90;;;;;;5033120;28;19920;-70
2022/11/16 03:54:03;;;;;;;;;;;3.30;99.90;;;;;;5032933;28;20373;-71
2022/11/16 03:56:28;;;;;;;;;;;3.30;99.90;;;;;;5033248;28;19920;-70
2022/11/16 03:58:54;;;;;;;;;;;3.30;99.90;;;;;;5032926;28;19917;-71
2022/11/16 04:01:19;;;;;;;;;;;3.30;99.90;;;;;;5035056;28;19963;-71
2022/11/16 04:03:45;;;;;;;;;;;3.30;99.90;;;;;;5036629;28;20393;-71
2022/11/16 04:25:53;;;;;;;;;;;3.50;99.90;;;;;;5036571;28;19916;-71
2022/11/16 04:28:21;;;;;;;;;;;3.60;99.90;;;;;;5018509;28;19913;-71
2022/11/16 04:39:06;;;;;;;;;;;3.60;99.90;;;;;;5036068;28;20020;-70
2022/11/16 04:44:16;;;;;;;;;;;3.60;99.90;;;;;;5020706;28;20304;-71
2022/11/16 04:49:26;;;;;;;;;;;3.60;99.90;;;;;;5034152;28;20285;-70
2022/11/16 04:51:52;;;;;;;;;;;3.60;99.90;;;;;;5035389;28;19917;-70
2022/11/16 04:54:17;;;;;;;;;;;3.60;99.90;;;;;;5035565;28;19975;-70
2022/11/16 04:56:43;;;;;;;;;;;3.60;99.90;;;;;;5035165;28;19913;-70
2022/11/16 04:59:09;;;;;;;;;;;3.60;99.90;;;;;;5035373;28;19917;-70
2022/11/16 05:04:18;;;;;;;;;;;3.70;99.90;;;;;;5029489;28;20308;-70
2022/11/16 05:06:44;;;;;;;;;;;3.70;99.90;;;;;;5035347;28;19913;-70
2022/11/16 05:09:10;;;;;;;;;;;3.70;99.90;;;;;;5035675;28;19913;-71
2022/11/16 05:11:35;;;;;;;;;;;3.70;99.90;;;;;;5034375;28;20347;-70
2022/11/16 05:14:01;;;;;;;;;;;3.70;99.90;;;;;;5034666;28;20284;-71
2022/11/16 05:16:26;;;;;;;;;;;3.70;99.90;;;;;;5035133;28;20373;-70
2022/11/16 05:21:36;;;;;;;;;;;3.70;99.90;;;;;;5035275;28;19967;-70
2022/11/16 05:26:46;;;;;;;;;;;3.80;99.90;;;;;;5035599;28;20388;-70
2022/11/16 05:29:12;;;;;;;;;;;3.80;99.90;;;;;;5035613;28;19913;-70
2022/11/16 05:31:37;;;;;;;;;;;3.80;99.90;;;;;;5034981;28;19909;-70
2022/11/16 05:34:03;;;;;;;;;;;3.80;99.90;;;;;;5034954;28;19913;-70
2022/11/16 05:36:29;;;;;;;;;;;3.80;99.90;;;;;;5016996;28;20380;-70
2022/11/16 05:38:54;;;;;;;;;;;3.80;99.90;;;;;;5034777;28;19917;-70
2022/11/16 05:41:20;;;;;;;;;;;3.80;99.90;;;;;;5035301;28;19914;-70
2022/11/16 05:43:45;;;;;;;;;;;3.80;99.90;;;;;;5034715;28;20393;-70
2022/11/16 05:46:11;;;;;;;;;;;3.80;99.90;;;;;;5034704;28;20320;-70
2022/11/16 05:48:36;;;;;;;;;;;3.80;99.90;;;;;;5016853;28;20365;-69
2022/11/16 05:51:02;;;;;;;;;;;3.80;99.90;;;;;;5034867;28;20365;-70
2022/11/16 05:53:27;;;;;;;;;;;3.80;99.90;;;;;;5016660;28;19923;-70
2022/11/16 05:55:53;;;;;;;;;;;3.90;99.90;;;;;;5016704;28;19913;-70
2022/11/16 05:58:18;;;;;;;;;;;3.80;99.90;;;;;;5016767;28;19920;-70
2022/11/16 06:00:47;;;;;;;;;;;3.90;99.90;;;;;;5016569;28;19917;-70
2022/11/16 06:03:13;;;;;;;;;;;3.90;99.90;;;;;;5034390;28;19919;-70
2022/11/16 06:05:39;;;;;;;;;;;3.90;99.90;;;;;;5034927;28;19909;-70
2022/11/16 06:08:04;;;;;;;;;;;3.90;99.90;;;;;;5034590;28;19917;-70
2022/11/16 06:10:30;;;;;;;;;;;3.90;99.90;;;;;;5034289;28;20417;-70
2022/11/16 06:12:55;;;;;;;;;;;3.90;99.90;;;;;;5034802;28;20309;-70
2022/11/16 06:15:21;;;;;;;;;;;3.80;99.90;;;;;;5034167;28;19913;-70
2022/11/16 06:17:46;;;;;;;;;;;3.90;99.90;;;;;;5034042;28;20020;-70
2022/11/16 06:20:12;;;;;;;;;;;3.90;99.90;;;;;;5034019;28;19921;-70
2022/11/16 06:22:37;;;;;;;;;;;3.90;99.90;;;;;;5034847;28;19932;-70
2022/11/16 06:25:05;;;;;;;;;;;3.90;99.90;;;;;;5033840;28;19913;-70
2022/11/16 06:27:31;;;;;;;;;;;3.90;99.90;;;;;;5034455;28;20285;-70
2022/11/16 06:29:57;;;;;;;;;;;3.90;99.90;;;;;;5016209;28;19913;-70
2022/11/16 06:32:22;;;;;;;;;;;3.90;99.90;;;;;;5016243;28;19921;-70
2022/11/16 06:34:48;;;;;;;;;;;3.80;99.90;;;;;;5016103;28;19909;-70
2022/11/16 06:37:14;;;;;;;;;;;3.90;99.90;;;;;;4999673;28;19913;-70
2022/11/16 06:39:39;;;;;;;;;;;3.90;99.90;;;;;;5033970;28;20436;-70
2022/11/16 06:42:05;;;;;;;;;;;3.90;99.90;;;;;;5034040;28;20400;-70
2022/11/16 06:44:30;;;;;;;;;;;3.90;99.90;;;;;;5016327;28;19913;-70
2022/11/16 06:46:56;;;;;;;;;;;4.00;99.90;;;;;;5016218;28;20023;-70
2022/11/16 06:49:21;;;;;;;;;;;4.00;99.90;;;;;;5033684;28;19920;-70
2022/11/16 06:51:47;;;;;;;;;;;4.00;99.90;;;;;;5033498;28;19920;-70
2022/11/16 06:54:12;;;;;;;;;;;4.00;99.90;;;;;;5034166;28;20009;-70
2022/11/16 06:56:38;;;;;;;;;;;4.00;99.90;;;;;;5033517;28;20416;-70
2022/11/16 06:59:03;;;;;;;;;;;4.00;99.90;;;;;;5033756;28;19917;-70
2022/11/16 07:01:30;;;;;;;;;;;4.00;99.90;;;;;;5033521;28;19913;-70
2022/11/16 07:03:56;;;;;;;;;;;4.00;99.90;;;;;;5033820;28;19913;-70
2022/11/16 07:06:21;;;;;;;;;;;4.00;99.90;;;;;;5015807;28;19931;-70
2022/11/16 07:08:47;;;;;;;;;;;4.10;99.90;;;;;;5033639;28;20004;-70
2022/11/16 07:11:12;;;;;;;;;;;4.10;99.90;;;;;;5015766;28;20420;-70
2022/11/16 07:13:38;;;;;;;;;;;4.10;99.90;;;;;;5033654;28;19943;-70
2022/11/16 07:16:04;;;;;;;;;;;4.10;99.90;;;;;;5033435;28;19913;-70
2022/11/16 07:18:34;;;;;;;;;;;4.20;99.90;;;;;;5015463;28;19995;-70
2022/11/16 07:21:07;;;;;;;;;;;4.20;99.90;;;;;;5015585;28;19909;-70
2022/11/16 07:23:32;;;;;;;;;;;4.20;99.90;;;;;;5033338;28;19959;-70
2022/11/16 07:26:02;;;;;;;;;;;4.20;99.90;;;;;;5033879;28;19917;-70
2022/11/16 07:28:28;;;;;;;;;;;4.30;99.90;;;;;;5033223;28;19909;-70
2022/11/16 07:30:54;;;;;;;;;;;4.20;99.90;;;;;;5015532;28;20304;-71
2022/11/16 07:33:20;;;;;;;;;;;4.30;99.90;;;;;;5033783;28;19967;-70
2022/11/16 07:35:45;;;;;;;;;;;4.30;99.90;;;;;;5034527;28;19913;-71
2022/11/16 07:38:11;;;;;;;;;;;4.30;99.90;;;;;;5037059;28;20285;-71
2022/11/16 07:40:36;;;;;;;;;;;4.30;99.90;;;;;;5037291;28;19968;-71
2022/11/16 07:43:02;;;;;;;;;;;4.30;99.90;;;;;;5037013;28;19916;-71
2022/11/16 07:45:27;;;;;;;;;;;4.30;99.90;;;;;;5019619;28;20357;-71
2022/11/16 07:47:53;;;;;;;;;;;4.40;99.90;;;;;;5037455;28;19932;-71
2022/11/16 07:50:19;;;;;;;;;;;4.30;99.90;;;;;;5036904;28;20360;-71
2022/11/16 07:52:45;;;;;;;;;;;4.40;99.90;;;;;;5036906;28;19921;-71
2022/11/16 07:55:11;;;;;;;;;;;4.40;99.90;;;;;;5037301;28;19941;-71
2022/11/16 07:57:37;;;;;;;;;;;4.40;99.90;;;;;;5036708;28;19924;-71
2022/11/16 08:00:03;;;;;;;;;;;4.40;99.90;;;;;;5018916;28;19913;-71
2022/11/16 08:02:29;;;;;;;;;;;4.50;99.90;;;;;;5036704;28;19920;-71
2022/11/16 08:04:54;;;;;;;;;;;4.50;99.90;;;;;;5036623;28;19913;-71
2022/11/16 08:07:20;;;;;;;;;;;4.50;99.90;;;;;;5036473;28;19917;-71
2022/11/16 08:09:45;;;;;;;;;;;4.60;99.90;;;;;;5036585;28;19955;-71
2022/11/16 08:12:12;;;;;;;;;;;4.60;99.90;;;;;;5019044;28;19939;-71
2022/11/16 08:14:38;;;;;;;;;;;4.70;99.90;;;;;;5036500;28;19936;-71
2022/11/16 08:17:04;;;;;;;;;;;4.70;99.90;;;;;;5036364;28;20281;-71
2022/11/16 08:19:30;;;;;;;;;;;4.70;99.90;;;;;;5019036;28;20392;-71
2022/11/16 08:21:55;;;;;;;;;;;4.80;99.90;;;;;;5036348;28;19913;-71
2022/11/16 08:24:21;;;;;;;;;;;4.80;99.90;;;;;;5036530;28;19968;-71
2022/11/16 08:26:46;;;;;;;;;;;4.80;99.90;;;;;;5036160;28;19917;-71
2022/11/16 08:29:13;;;;;;;;;;;4.90;99.90;;;;;;5018445;28;20313;-71
2022/11/16 08:31:39;;;;;;;;;;;4.90;99.90;;;;;;5036450;28;19963;-71
2022/11/16 08:34:04;;;;;;;;;;;4.90;99.90;;;;;;5036067;28;20277;-71
2022/11/16 08:36:30;;;;;;;;;;;4.90;99.90;;;;;;5035982;28;19913;-71
2022/11/16 08:38:55;;;;;;;;;;;5.00;99.90;;;;;;5036553;28;19944;-71
2022/11/16 08:41:21;;;;;;;;;;;5.00;99.90;;;;;;5035974;28;19913;-71
2022/11/16 08:43:49;;;;;;;;;;;5.00;99.90;;;;;;5036219;28;20012;-71
2022/11/16 08:46:14;;;;;;;;;;;5.10;99.90;;;;;;5035827;28;19913;-70
2022/11/16 08:48:40;;;;;;;;;;;5.10;99.90;;;;;;5018498;28;19920;-71
2022/11/16 08:51:17;;;;;;;;;;;5.10;99.90;;;;;;5035863;28;19913;-71
2022/11/16 08:53:43;;;;;;;;;;;5.10;99.90;;;;;;5035640;28;19917;-71
2022/11/16 08:56:11;;;;;;;;;;;5.10;99.90;;;;;;5035945;28;19910;-71
2022/11/16 08:58:36;;;;;;;;;;;5.20;99.90;;;;;;5035573;28;19920;-71
2022/11/16 09:01:06;;;;;;;;;;;5.20;99.90;;;;;;5035645;28;19909;-70
2022/11/16 09:03:32;;;;;;;;;;;5.20;99.90;;;;;;5035827;28;19952;-70
2022/11/16 09:05:58;;;;;;;;;;;5.20;99.90;;;;;;5035542;28;20328;-70
2022/11/16 09:08:23;;;;;;;;;;;5.20;99.90;;;;;;5001270;28;20367;-71
2022/11/16 09:10:49;;;;;;;;;;;5.20;99.90;;;;;;5017636;28;19919;-71
2022/11/16 09:13:14;;;;;;;;;;;5.20;99.90;;;;;;5017602;28;20330;-70
2022/11/16 09:15:40;;;;;;;;;;;5.20;99.90;;;;;;5035582;28;20361;-71
2022/11/16 09:18:05;;;;;;;;;;;5.20;99.90;;;;;;5035242;28;20106;-71
2022/11/16 09:20:31;;;;;;;;;;;5.20;99.90;;;;;;5017383;28;19917;-70
2022/11/16 09:22:57;;;;;;;;;;;5.20;99.90;;;;;;5035519;28;20347;-71
2022/11/16 09:25:22;;;;;;;;;;;5.20;99.90;;;;;;5035488;28;20011;-71
2022/11/16 09:27:48;;;;;;;;;;;5.20;99.90;;;;;;5035185;28;19918;-71
2022/11/16 09:30:13;;;;;;;;;;;5.20;99.90;;;;;;5035054;28;20016;-70
2022/11/16 09:32:39;;;;;;;;;;;5.30;99.90;;;;;;5035056;28;19960;-70
2022/11/16 09:35:05;;;;;;;;;;;5.30;99.90;;;;;;5034940;28;20000;-70
2022/11/16 09:37:30;;;;;;;;;;;5.30;99.90;;;;;;5017066;28;20022;-70
2022/11/16 09:39:57;;;;;;;;;;;5.30;99.90;;;;;;5034997;28;19921;-70
2022/11/16 09:42:31;;;;;;;;;;;5.30;99.90;;;;;;5035346;28;19920;-70
2022/11/16 09:44:58;;;;;;;;;;;5.40;99.90;;;;;;5034769;28;20285;-70
2022/11/16 09:47:44;;;;;;;;;;;5.40;99.90;;;;;;5034643;28;19913;-70
2022/11/16 09:50:33;;;;;;;;;;;5.40;99.90;;;;;;5024148;28;19909;-70
2022/11/16 09:53:04;;;;;;;;;;;5.40;99.90;;;;;;5026290;28;19952;-70
2022/11/16 09:55:32;;;;;;;;;;;5.50;99.90;;;;;;5034590;28;19909;-70
2022/11/16 09:58:00;;;;;;;;;;;5.50;99.90;;;;;;5033923;28;19939;-70
2022/11/16 10:00:25;;;;;;;;;;;5.50;99.90;;;;;;5034853;28;20285;-70
2022/11/16 10:02:54;;;;;;;;;;;5.50;99.90;;;;;;5034750;28;19910;-70
2022/11/16 10:05:21;;;;;;;;;;;5.50;99.90;;;;;;5034646;28;19932;-70
2022/11/16 10:07:49;;;;;;;;;;;5.50;99.90;;;;;;5034406;28;19959;-70
2022/11/16 10:10:15;;;;;;;;;;;5.50;99.90;;;;;;5034317;28;19948;-70
2022/11/16 10:12:47;;;;;;;;;;;5.60;99.90;;;;;;5034275;28;19952;-70
2022/11/16 10:15:19;;;;;;;;;;;5.60;99.90;;;;;;5034751;28;19909;-70
2022/11/16 10:18:00;;;;;;;;;;;5.60;99.90;;;;;;5034102;28;19992;-70
2022/11/16 10:20:44;;;;;;;;;;;5.70;99.90;;;;;;5016378;28;20384;-70
2022/11/16 10:23:28;;;;;;;;;;;5.70;99.90;;;;;;5034071;28;19916;-70
2022/11/16 10:26:04;;;;;;;;;;;5.70;99.90;;;;;;5034303;28;20306;-70
2022/11/16 10:28:48;;;;;;;;;;;5.80;99.90;;;;;;5034247;28;19952;-70
2022/11/16 10:31:20;;;;;;;;;;;5.90;99.90;;;;;;5034514;28;20376;-70
2022/11/16 10:33:47;;;;;;;;;;;5.90;99.90;;;;;;5033895;28;20388;-70
2022/11/16 10:36:13;;;;;;;;;;;6.00;99.90;;;;;;5033890;28;19915;-70
2022/11/16 10:38:40;;;;;;;;;;;6.00;99.90;;;;;;5033683;28;19913;-70
2022/11/16 10:41:24;;;;;;;;;;;6.00;99.90;;;;;;5033781;28;20265;-70
2022/11/16 10:43:49;;;;;;;;;;;6.10;99.90;;;;;;5034068;28;19909;-70
2022/11/16 10:46:21;;;;;;;;;;;6.10;99.90;;;;;;5033799;28;19921;-70
2022/11/16 10:48:46;;;;;;;;;;;6.10;99.90;;;;;;5033628;28;19913;-70
2022/11/16 10:51:12;;;;;;;;;;;6.10;99.90;;;;;;5033701;28;20297;-70
2022/11/16 10:53:39;;;;;;;;;;;6.20;99.90;;;;;;5033619;28;19928;-70
2022/11/16 10:56:23;;;;;;;;;;;6.20;99.90;;;;;;5033640;28;19996;-70
2022/11/16 10:58:51;;;;;;;;;;;6.20;99.90;;;;;;5033491;28;19992;-70
2022/11/16 11:01:27;;;;;;;;;;;6.20;99.90;;;;;;5015805;28;20297;-70
2022/11/16 11:03:52;;;;;;;;;;;6.20;99.90;;;;;;5033812;28;19920;-70
2022/11/16 11:06:18;;;;;;;;;;;6.20;99.90;;;;;;5015832;28;19917;-70
2022/11/16 11:08:43;;;;;;;;;;;6.20;99.90;;;;;;5033991;28;20000;-71
2022/11/16 11:14:10;;;;;;;;;;;6.10;99.90;;;;;;5038034;28;20011;-71
2022/11/16 11:16:36;;;;;;;;;;;6.20;99.90;;;;;;5037489;28;19915;-71
2022/11/16 11:19:17;;;;;;;;;;;6.20;99.90;;;;;;5037503;28;20004;-71
2022/11/16 11:21:43;;;;;;;;;;;6.20;99.90;;;;;;5037534;28;20004;-71
2022/11/16 11:24:13;;;;;;;;;;;6.20;99.90;;;;;;5037712;28;19917;-71
2022/11/16 11:26:39;;;;;;;;;;;6.20;99.90;;;;;;5037635;28;19909;-70
2022/11/16 11:29:19;;;;;;;;;;;6.20;99.90;;;;;;5037609;28;20007;-70
2022/11/16 11:31:49;;;;;;;;;;;6.20;99.90;;;;;;5019631;28;19909;-71
2022/11/16 11:34:16;;;;;;;;;;;6.20;99.90;;;;;;5019493;28;19909;-71
2022/11/16 11:36:47;;;;;;;;;;;6.30;99.90;;;;;;5037225;28;19916;-71
2022/11/16 11:39:12;;;;;;;;;;;6.30;99.90;;;;;;5037386;28;19913;-71
2022/11/16 11:41:38;;;;;;;;;;;6.30;99.90;;;;;;5037121;28;20432;-71
2022/11/16 11:44:05;;;;;;;;;;;6.30;99.90;;;;;;5037688;28;19920;-71
2022/11/16 11:46:36;;;;;;;;;;;6.30;99.90;;;;;;5037300;28;19936;-71
2022/11/16 11:49:27;;;;;;;;;;;6.30;99.90;;;;;;5037004;28;19917;-71
2022/11/16 11:51:55;;;;;;;;;;;6.30;99.90;;;;;;5033704;28;19997;-72
2022/11/16 11:54:27;;;;;;;;;;;6.30;99.90;;;;;;5036963;28;19913;-71
2022/11/16 11:56:53;;;;;;;;;;;6.40;99.90;;;;;;5020097;28;19909;-71
2022/11/16 11:59:20;;;;;;;;;;;6.40;99.90;;;;;;5036695;28;19913;-71
2022/11/16 12:01:49;;;;;;;;;;;6.40;99.90;;;;;;5036759;28;19909;-71
2022/11/16 12:04:20;;;;;;;;;;;6.40;99.90;;;;;;5036758;28;19909;-71
2022/11/16 12:06:46;;;;;;;;;;;6.40;99.90;;;;;;5036683;28;19916;-71
2022/11/16 12:09:23;;;;;;;;;;;6.50;99.90;;;;;;5036635;28;20361;-71
2022/11/16 12:12:08;;;;;;;;;;;6.50;99.90;;;;;;5036577;28;19909;-71
2022/11/16 12:14:48;;;;;;;;;;;6.60;99.90;;;;;;5036579;28;19909;-71
2022/11/16 12:17:23;;;;;;;;;;;6.60;99.90;;;;;;5036980;28;20003;-70
2022/11/16 12:20:07;;;;;;;;;;;6.70;99.90;;;;;;5036596;28;19919;-71
2022/11/16 12:22:36;;;;;;;;;;;6.70;99.90;;;;;;5036348;28;20316;-70
2022/11/16 12:25:10;;;;;;;;;;;6.80;99.90;;;;;;5018611;28;20389;-71
2022/11/16 12:27:41;;;;;;;;;;;6.80;99.90;;;;;;5036184;28;19909;-71
2022/11/16 12:30:12;;;;;;;;;;;6.80;99.90;;;;;;5035795;28;19921;-71
2022/11/16 12:32:50;;;;;;;;;;;6.80;99.90;;;;;;5025387;28;19916;-71
2022/11/16 12:35:22;;;;;;;;;;;6.80;99.90;;;;;;5035800;28;19920;-70
2022/11/16 12:38:06;;;;;;;;;;;6.80;99.90;;;;;;5035746;28;20392;-70
2022/11/16 12:40:39;;;;;;;;;;;6.80;99.90;;;;;;5035429;28;19934;-70
2022/11/16 12:43:10;;;;;;;;;;;6.80;99.90;;;;;;5035873;28;19913;-70
2022/11/16 12:45:54;;;;;;;;;;;6.80;99.90;;;;;;5036564;28;19984;-71
2022/11/16 12:48:22;;;;;;;;;;;6.80;99.90;;;;;;5035620;28;19909;-70
2022/11/16 12:50:48;;;;;;;;;;;6.90;99.90;;;;;;5034636;28;19913;-71
2022/11/16 12:53:26;;;;;;;;;;;6.90;99.90;;;;;;5035366;28;19917;-70
2022/11/16 12:56:09;;;;;;;;;;;6.90;99.90;;;;;;5035544;28;19917;-71
2022/11/16 12:58:40;;;;;;;;;;;6.90;99.90;;;;;;5035590;28;19916;-71
2022/11/16 13:01:12;;;;;;;;;;;6.90;99.90;;;;;;5035702;28;20106;-71
2022/11/16 13:03:59;;;;;;;;;;;6.90;99.90;;;;;;5036118;28;19909;-71
2022/11/16 13:06:25;;;;;;;;;;;6.90;99.90;;;;;;5035642;28;19931;-71
2022/11/16 13:09:05;;;;;;;;;;;6.90;99.90;;;;;;5035426;28;20003;-70
2022/11/16 13:11:34;;;;;;;;;;;7.00;99.90;;;;;;5035940;28;19909;-71
2022/11/16 13:14:02;;;;;;;;;;;7.00;99.90;;;;;;5035672;28;19909;-71
2022/11/16 13:16:28;;;;;;;;;;;7.00;99.90;;;;;;5035236;28;19956;-71
2022/11/16 13:18:54;;;;;;;;;;;7.00;99.90;;;;;;5035849;28;19913;-71
2022/11/16 13:21:29;;;;;;;;;;;7.10;99.90;;;;;;5035247;28;19996;-71
2022/11/16 13:24:00;;;;;;;;;;;7.10;99.90;;;;;;5035248;28;19909;-71
2022/11/16 13:26:29;;;;;;;;;;;7.10;99.90;;;;;;5035429;28;19932;-71
2022/11/16 13:29:21;;;;;;;;;;;7.00;99.90;;;;;;5035104;28;19909;-71
2022/11/16 13:32:09;;;;;;;;;;;7.00;99.90;;;;;;5035577;28;20004;-71
2022/11/16 13:34:37;;;;;;;;;;;7.00;99.90;;;;;;5034136;28;19916;-71
2022/11/16 13:37:22;;;;;;;;;;;7.00;99.90;;;;;;5035064;28;19915;-71
2022/11/16 13:39:56;;;;;;;;;;;7.00;99.90;;;;;;5034605;28;19917;-71
2022/11/16 13:42:22;;;;;;;;;;;7.00;99.90;;;;;;5034677;28;19917;-71
2022/11/16 13:44:48;;;;;;;;;;;7.00;99.90;;;;;;5034883;28;20242;-71
2022/11/16 13:47:21;;;;;;;;;;;7.00;99.90;;;;;;5034624;28;19932;-70
2022/11/16 13:49:49;;;;;;;;;;;7.00;99.90;;;;;;5035056;28;19913;-70
2022/11/16 13:52:15;;;;;;;;;;;7.00;99.90;;;;;;5034242;28;20340;-71
2022/11/16 13:54:46;;;;;;;;;;;7.00;99.90;;;;;;5034637;28;19909;-71
2022/11/16 13:57:18;;;;;;;;;;;7.00;99.90;;;;;;5034107;28;19913;-71
2022/11/16 13:59:44;;;;;;;;;;;7.00;99.90;;;;;;5035110;28;19921;-70
2022/11/16 14:02:29;;;;;;;;;;;7.00;99.90;;;;;;5034549;28;20051;-71
2022/11/16 14:04:56;;;;;;;;;;;7.10;99.90;;;;;;5034485;28;19915;-71
2022/11/16 14:07:30;;;;;;;;;;;7.10;99.90;;;;;;5034658;28;19971;-70
2022/11/16 14:09:55;;;;;;;;;;;7.10;99.90;;;;;;5034390;28;19915;-70
2022/11/16 14:12:36;;;;;;;;;;;7.10;99.90;;;;;;5034640;28;19917;-70
2022/11/16 14:15:16;;;;;;;;;;;7.10;99.90;;;;;;5034247;28;19913;-71
2022/11/16 14:17:51;;;;;;;;;;;7.10;99.90;;;;;;5034306;28;19909;-70
2022/11/16 14:20:26;;;;;;;;;;;7.10;99.90;;;;;;5034403;28;20039;-71
2022/11/16 14:23:05;;;;;;;;;;;7.20;99.90;;;;;;5033676;28;20480;-71
2022/11/16 14:25:39;;;;;;;;;;;7.20;99.90;;;;;;5034690;28;19909;-70
2022/11/16 14:28:17;;;;;;;;;;;7.20;99.90;;;;;;5016270;28;19909;-70
2022/11/16 14:30:48;;;;;;;;;;;7.30;99.90;;;;;;5034018;28;20361;-70
2022/11/16 14:33:22;;;;;;;;;;;7.30;99.90;;;;;;5034082;28;20380;-70
2022/11/16 14:35:51;;;;;;;;;;;7.30;99.90;;;;;;5034291;28;19991;-70
2022/11/16 14:38:33;;;;;;;;;;;7.30;99.90;;;;;;5033995;28;19953;-70
2022/11/16 14:40:59;;;;;;;;;;;7.30;99.90;;;;;;5033803;28;19913;-70
2022/11/16 14:43:46;;;;;;;;;;;7.40;99.90;;;;;;5034148;28;19909;-71
2022/11/16 14:46:19;;;;;;;;;;;7.40;99.90;;;;;;5034015;28;19955;-70
2022/11/16 14:48:45;;;;;;;;;;;7.40;99.90;;;;;;5033646;28;19999;-70
2022/11/16 14:51:18;;;;;;;;;;;7.50;99.90;;;;;;5034006;28;19913;-70
2022/11/16 14:53:51;;;;;;;;;;;7.50;99.90;;;;;;5033656;28;20377;-71
2022/11/16 14:56:17;;;;;;;;;;;7.50;99.90;;;;;;5033691;28;19940;-70
2022/11/16 14:58:52;;;;;;;;;;;7.50;99.90;;;;;;5033618;28;20391;-70
2022/11/16 15:01:19;;;;;;;;;;;7.50;99.90;;;;;;5033666;28;19967;-71
2022/11/16 15:03:52;;;;;;;;;;;7.40;99.90;;;;;;5033648;28;19909;-70
2022/11/16 15:06:18;;;;;;;;;;;7.40;99.90;;;;;;5034443;28;19920;-70
2022/11/16 15:08:46;;;;;;;;;;;7.40;99.90;;;;;;5033491;28;20375;-71
2022/11/16 15:11:25;;;;;;;;;;;7.40;99.90;;;;;;5033532;28;19963;-70
2022/11/16 15:13:52;;;;;;;;;;;7.40;99.90;;;;;;5033778;28;19909;-70
2022/11/16 15:16:18;;;;;;;;;;;7.30;99.90;;;;;;5033729;28;19913;-71
2022/11/16 15:18:58;;;;;;;;;;;7.30;99.90;;;;;;5033310;28;19960;-70
2022/11/16 15:21:24;;;;;;;;;;;7.30;99.90;;;;;;5033508;28;19952;-70
2022/11/16 15:23:50;;;;;;;;;;;7.30;99.90;;;;;;5033642;28;19913;-71
2022/11/16 15:26:20;;;;;;;;;;;7.30;99.90;;;;;;5033401;28;19979;-71
2022/11/16 15:28:46;;;;;;;;;;;7.30;99.90;;;;;;5033258;28;19917;-70
2022/11/16 15:31:13;;;;;;;;;;;7.30;99.90;;;;;;5033859;28;19913;-70